Time;durP1;ratioP1;P1;durP2;ratioP2;P2;SDS_P1;SDS_P2;PMS_P1;PMS_P2;Temp;Humidity;BMP_temperature;BMP_pressure;BME280_temperature;BME280_humidity;BME280_pressure;Samples;Min_cycle;Max_cycle;Signal;HPM_P1;HPM_P2
2023/10/03 00:00:31;;;;;;;14.90;6.97;;;;;;;22.11;50.14;93813.91;5955510;23;20094;-94
2023/10/03 00:03:00;;;;;;;11.70;5.90;;;;;;;22.07;49.94;93805.22;5958364;23;20035;-93
2023/10/03 00:05:33;;;;;;;11.18;5.95;;;;;;;22.07;50.27;93801.72;5977787;23;20027;-94
2023/10/03 00:08:07;;;;;;;10.00;5.68;;;;;;;22.08;49.94;93798.47;6014231;23;20046;-94
2023/10/03 00:10:38;;;;;;;10.65;6.50;;;;;;;22.06;50.11;93795.47;5989502;23;20499;-94
2023/10/03 00:13:11;;;;;;;11.00;6.43;;;;;;;22.06;50.25;93789.97;5987853;23;20022;-92
2023/10/03 00:18:36;;;;;;;10.43;6.00;;;;;;;22.06;49.93;93792.72;5872859;24;20597;-92
2023/10/03 00:21:01;;;;;;;12.32;6.45;;;;;;;22.06;49.79;93789.22;5891617;24;20494;-92
2023/10/03 00:23:30;;;;;;;9.15;6.20;;;;;;;22.06;50.04;93792.72;5920861;24;20028;-94
2023/10/03 00:26:00;;;;;;;10.52;6.25;;;;;;;22.07;49.80;93787.97;5899689;24;20063;-93
2023/10/03 00:28:33;;;;;;;12.65;6.20;;;;;;;22.05;50.00;93785.75;5861068;24;20020;-93
2023/10/03 00:30:59;;;;;;;10.07;6.03;;;;;;;22.05;50.13;93780.22;5889780;24;20021;-93
2023/10/03 00:33:26;;;;;;;11.35;6.35;;;;;;;22.06;49.90;93783.72;5863816;24;20036;-92
2023/10/03 00:35:53;;;;;;;12.10;6.40;;;;;;;22.05;50.13;93779.50;5864743;24;20557;-93
2023/10/03 00:38:21;;;;;;;10.68;6.13;;;;;;;22.04;49.87;93781.50;5919294;24;20025;-93
2023/10/03 00:40:50;;;;;;;10.80;5.78;;;;;;;22.03;50.09;93776.50;5921749;24;20017;-93
2023/10/03 00:43:18;;;;;;;11.50;5.95;;;;;;;22.04;49.90;93773.25;5898799;24;20076;-91
2023/10/03 00:45:45;;;;;;;10.68;5.57;;;;;;;22.04;49.97;93764.97;5921619;24;20029;-94
2023/10/03 00:48:12;;;;;;;7.97;5.10;;;;;;;22.02;50.20;93761.25;5847244;24;20022;-91
2023/10/03 00:50:43;;;;;;;11.35;6.22;;;;;;;22.00;50.27;93761.78;5848970;24;20097;-91
2023/10/03 00:53:16;;;;;;;9.40;5.60;;;;;;;22.02;50.13;93756.50;5836505;24;20139;-92
2023/10/03 00:55:45;;;;;;;10.50;5.38;;;;;;;22.02;50.16;93750.25;5921141;23;20023;-95
2023/10/03 01:00:43;;;;;;;12.30;6.72;;;;;;;22.01;50.36;93754.28;5958738;23;20034;-91
2023/10/03 01:03:37;;;;;;;9.30;6.13;;;;;;;22.01;49.98;93760.53;5956829;23;20019;-92
2023/10/03 01:06:15;;;;;;;10.07;6.00;;;;;;;22.01;49.98;93744.00;5948989;23;20048;-93
2023/10/03 01:08:46;;;;;;;9.60;5.97;;;;;;;22.01;49.95;93744.00;5958394;23;20685;-92
2023/10/03 01:11:18;;;;;;;8.40;4.57;;;;;;;22.03;50.15;93740.72;5939557;24;20052;-91
2023/10/03 01:13:54;;;;;;;9.32;5.40;;;;;;;22.01;50.21;93732.25;5932039;24;20024;-92
2023/10/03 01:16:33;;;;;;;9.63;5.60;;;;;;;22.00;50.17;93739.75;5907457;24;20024;-91
2023/10/03 01:19:20;;;;;;;9.50;5.55;;;;;;;22.02;49.88;93742.75;5967437;23;20312;-92
2023/10/03 01:21:50;;;;;;;11.48;6.10;;;;;;;22.01;49.88;93738.50;5981468;23;20026;-93
2023/10/03 01:24:26;;;;;;;10.37;5.20;;;;;;;21.99;49.93;93738.25;5990890;23;20066;-92
2023/10/03 01:26:56;;;;;;;8.95;5.03;;;;;;;22.02;49.85;93739.25;5992841;23;20015;-92
2023/10/03 01:29:24;;;;;;;9.98;5.22;;;;;;;22.01;49.75;93727.47;6014784;23;20217;-92
2023/10/03 01:31:52;;;;;;;9.70;5.43;;;;;;;22.00;49.98;93722.47;5993069;23;20023;-92
2023/10/03 01:34:18;;;;;;;11.35;5.63;;;;;;;22.00;49.83;93715.00;5998780;23;20019;-93
2023/10/03 01:36:47;;;;;;;11.40;5.97;;;;;;;22.01;50.09;93718.47;5977297;23;20018;-93
2023/10/03 01:39:15;;;;;;;8.80;5.43;;;;;;;22.00;50.00;93719.72;5992798;23;20463;-93
2023/10/03 01:41:43;;;;;;;9.93;5.28;;;;;;;21.98;49.84;93725.75;6003600;23;20015;-92
2023/10/03 01:44:16;;;;;;;9.20;5.43;;;;;;;22.00;50.05;93715.00;5986551;23;20098;-93
2023/10/03 01:46:43;;;;;;;9.10;5.30;;;;;;;22.01;49.92;93710.97;5969639;23;20420;-93
2023/10/03 01:49:14;;;;;;;10.52;5.50;;;;;;;22.00;49.93;93706.72;5991093;23;20034;-93
2023/10/03 01:51:43;;;;;;;7.35;4.60;;;;;;;22.01;49.90;93699.22;5980915;23;20019;-93
2023/10/03 01:54:17;;;;;;;9.27;5.40;;;;;;;21.99;49.85;93707.97;5992317;23;20030;-92
2023/10/03 01:56:45;;;;;;;7.95;4.82;;;;;;;21.97;49.97;93694.00;5987101;23;20307;-92
2023/10/03 01:59:11;;;;;;;8.68;5.47;;;;;;;21.99;49.80;93696.22;5976558;23;20030;-91
2023/10/03 02:01:37;;;;;;;10.18;5.10;;;;;;;21.98;50.04;93692.72;6038541;23;20082;-94
2023/10/03 02:04:06;;;;;;;8.50;5.10;;;;;;;21.98;49.69;93687.22;5990300;23;20360;-91
2023/10/03 02:06:33;;;;;;;7.65;5.00;;;;;;;21.98;49.62;93692.72;6015085;23;20023;-92
2023/10/03 02:09:07;;;;;;;10.48;5.70;;;;;;;21.98;49.76;93678.22;5972212;23;20098;-92
2023/10/03 02:11:37;;;;;;;8.88;5.05;;;;;;;21.98;49.79;93694.72;5985199;23;20027;-92
2023/10/03 02:14:07;;;;;;;8.70;5.53;;;;;;;21.96;49.89;93689.75;5958220;23;20023;-89
2023/10/03 02:16:39;;;;;;;8.23;4.53;;;;;;;21.97;49.85;93693.25;5962235;23;20067;-94
2023/10/03 02:19:05;;;;;;;8.18;5.35;;;;;;;21.98;49.97;93672.72;6030942;23;20100;-92
2023/10/03 02:21:31;;;;;;;9.27;4.97;;;;;;;21.97;49.87;93680.22;5973027;23;20015;-94
2023/10/03 02:23:57;;;;;;;6.70;4.32;;;;;;;21.98;49.61;93672.72;5983780;23;20026;-92
2023/10/03 02:26:25;;;;;;;8.35;4.97;;;;;;;21.97;49.92;93677.47;5971835;23;20169;-92
2023/10/03 02:28:54;;;;;;;7.90;4.97;;;;;;;21.96;49.91;93667.72;5975342;23;20027;-94
2023/10/03 02:31:22;;;;;;;8.82;4.88;;;;;;;21.96;49.81;93670.47;5983695;23;20102;-93
2023/10/03 02:33:52;;;;;;;9.15;5.22;;;;;;;21.97;49.72;93660.97;5985586;23;20356;-93
2023/10/03 02:36:21;;;;;;;8.60;4.55;;;;;;;21.96;49.96;93664.22;5972491;23;20140;-92
2023/10/03 02:38:51;;;;;;;6.75;4.80;;;;;;;21.96;49.98;93658.72;5972930;23;20019;-94
2023/10/03 02:41:20;;;;;;;9.15;4.80;;;;;;;21.96;49.81;93659.47;5993686;23;20045;-93
2023/10/03 02:43:52;;;;;;;6.97;4.45;;;;;;;21.94;49.96;93651.00;6014737;23;20329;-93
2023/10/03 02:46:18;;;;;;;9.27;4.78;;;;;;;21.95;49.74;93654.50;5991578;23;20023;-92
2023/10/03 02:48:44;;;;;;;8.15;4.80;;;;;;;21.95;49.86;93658.00;5990999;23;20047;-92
2023/10/03 02:51:14;;;;;;;9.50;4.85;;;;;;;21.92;49.77;93652.78;6015012;23;20023;-92
2023/10/03 02:53:42;;;;;;;7.63;4.72;;;;;;;21.93;49.68;93646.75;6015419;23;20039;-93
2023/10/03 02:56:13;;;;;;;7.60;4.55;;;;;;;21.94;49.53;93644.75;6014006;23;20034;-92
2023/10/03 02:58:46;;;;;;;7.72;4.57;;;;;;;21.93;49.90;93646.03;6016090;23;20019;-93
2023/10/03 03:01:31;;;;;;;7.95;4.53;;;;;;;21.93;49.85;93651.53;6000445;23;20082;-91
2023/10/03 03:04:02;;;;;;;7.32;4.55;;;;;;;21.93;49.72;93652.25;5998547;23;20019;-91
2023/10/03 03:06:33;;;;;;;8.27;4.38;;;;;;;21.93;49.96;93648.78;6003103;23;20090;-92
2023/10/03 03:09:06;;;;;;;8.05;4.82;;;;;;;21.93;49.71;93648.78;6014783;23;20022;-92
2023/10/03 03:11:33;;;;;;;9.55;4.93;;;;;;;21.92;50.04;93642.53;6024383;23;20030;-92
2023/10/03 03:14:05;;;;;;;6.95;4.40;;;;;;;21.94;49.67;93642.75;5996583;23;20079;-91
2023/10/03 03:16:34;;;;;;;8.98;4.65;;;;;;;21.94;50.01;93650.25;5959217;23;20029;-93
2023/10/03 03:19:11;;;;;;;6.82;4.20;;;;;;;21.94;50.01;93650.25;5984157;23;20027;-91
2023/10/03 03:21:36;;;;;;;10.15;4.40;;;;;;;21.95;49.69;93641.47;5963812;24;20024;-93
2023/10/03 03:24:08;;;;;;;7.22;4.47;;;;;;;21.97;50.25;93652.69;5947314;24;20493;-93
2023/10/03 03:27:11;;;;;;;10.80;5.20;;;;;;;21.93;50.04;93648.78;5926657;24;20032;-92
2023/10/03 03:29:46;;;;;;;20.48;4.55;;;;;;;22.12;49.92;93643.94;5956131;24;20059;-93
2023/10/03 03:32:12;;;;;;;9.10;4.82;;;;;;;22.04;49.28;93635.59;5932593;24;20544;-91
2023/10/03 03:34:37;;;;;;;7.78;5.55;;;;;;;21.96;49.14;93634.69;5926830;24;20050;-92
2023/10/03 03:37:27;;;;;;;7.53;4.65;;;;;;;21.88;49.15;93631.09;5936823;24;20024;-93
2023/10/03 03:39:56;;;;;;;12.30;8.17;;;;;;;21.78;48.99;93630.03;5948775;23;20017;-92
2023/10/03 03:42:22;;;;;;;18.15;9.90;;;;;;;21.73;49.08;93633.63;5943778;24;20259;-92
2023/10/03 03:44:49;;;;;;;19.02;11.30;;;;;;;21.57;49.46;93642.91;5950342;23;20020;-92
2023/10/03 03:47:19;;;;;;;15.18;9.48;;;;;;;21.55;49.37;93635.19;5984612;23;20023;-91
2023/10/03 03:52:23;;;;;;;54.40;26.45;;;;;;;21.53;49.44;93632.94;6120120;23;20028;-93
2023/10/03 03:57:16;;;;;;;152.13;80.97;;;;;;;21.61;49.08;93624.81;6143342;23;20033;-92
2023/10/03 03:59:42;;;;;;;42.10;23.85;;;;;;;21.58;49.27;93625.88;5976618;23;20497;-93
2023/10/03 04:02:18;;;;;;;26.17;12.60;;;;;;;21.54;48.86;93630.94;5962878;23;20020;-93
2023/10/03 04:04:45;;;;;;;98.57;50.45;;;;;;;21.51;49.06;93638.25;5949496;24;20016;-92
2023/10/03 04:07:13;;;;;;;24.20;13.60;;;;;;;21.51;48.76;93637.50;5965813;23;20079;-92
2023/10/03 04:09:40;;;;;;;13.30;7.68;;;;;;;21.34;48.80;93642.53;5987744;23;20100;-93
2023/10/03 04:12:05;;;;;;;19.55;11.98;;;;;;;21.07;49.05;93642.41;5979946;23;20020;-92
2023/10/03 04:14:31;;;;;;;15.85;7.07;;;;;;;21.02;49.05;93642.47;5931064;24;20158;-92
2023/10/03 04:16:57;;;;;;;51.20;18.33;;;;;;;20.87;49.24;93635.47;5973086;24;20016;-91
2023/10/03 04:19:23;;;;;;;22.58;9.60;;;;;;;20.72;49.61;93643.41;5952282;24;20511;-94
2023/10/03 04:22:02;;;;;;;29.27;9.63;;;;;;;20.73;49.29;93636.66;6000597;23;20024;-90
2023/10/03 04:24:31;;;;;;;15.38;6.85;;;;;;;20.67;49.45;93635.25;5993449;23;20128;-92
2023/10/03 04:27:09;;;;;;;14.95;6.70;;;;;;;20.63;49.34;93635.53;5942469;24;20088;-93
2023/10/03 04:29:35;;;;;;;14.98;6.18;;;;;;;20.50;49.38;93624.50;5997919;23;20525;-93
2023/10/03 04:32:01;;;;;;;13.60;6.30;;;;;;;20.46;49.82;93624.03;6039400;23;20067;-92
2023/10/03 04:34:32;;;;;;;14.68;5.90;;;;;;;20.45;50.07;93625.31;6017320;23;20018;-92
2023/10/03 04:36:58;;;;;;;20.67;7.35;;;;;;;20.47;49.96;93636.50;6017333;23;20050;-92
2023/10/03 04:39:24;;;;;;;51.78;26.13;;;;;;;20.44;50.15;93632.06;6042805;23;20022;-92
2023/10/03 04:41:50;;;;;;;20.15;7.57;;;;;;;20.49;50.20;93637.47;6021614;23;20111;-93
2023/10/03 04:44:17;;;;;;;18.55;8.00;;;;;;;20.32;50.59;93634.19;6024030;23;20030;-92
2023/10/03 04:46:45;;;;;;;25.92;12.10;;;;;;;20.31;50.21;93637.44;5975837;23;20049;-90
2023/10/03 04:49:10;;;;;;;18.50;8.60;;;;;;;20.20;50.34;93630.81;5967505;23;20023;-91
2023/10/03 04:51:37;;;;;;;20.65;9.02;;;;;;;20.17;50.24;93625.59;6008442;23;20019;-90
2023/10/03 04:54:03;;;;;;;36.53;12.85;;;;;;;20.09;50.44;93630.22;6005414;23;20035;-91
2023/10/03 04:56:31;;;;;;;42.33;17.90;;;;;;;20.03;50.57;93633.00;6007354;23;20023;-91
2023/10/03 04:59:00;;;;;;;36.63;15.20;;;;;;;20.07;50.88;93627.22;6007573;23;20114;-92
2023/10/03 05:01:29;;;;;;;33.20;11.68;;;;;;;19.98;50.74;93636.56;6000405;23;20027;-93
2023/10/03 05:03:54;;;;;;;25.80;9.85;;;;;;;19.81;51.43;93627.75;6012545;23;21006;-91
2023/10/03 05:06:21;;;;;;;25.35;9.98;;;;;;;19.85;51.22;93628.97;6012840;23;20027;-90
2023/10/03 05:08:46;;;;;;;33.33;11.90;;;;;;;19.66;51.39;93622.69;6017362;23;20059;-91
2023/10/03 05:11:13;;;;;;;52.80;24.05;;;;;;;19.80;51.06;93626.28;6035245;23;20023;-89
2023/10/03 05:13:43;;;;;;;78.63;34.92;;;;;;;19.83;51.10;93625.25;6001692;23;20629;-91
2023/10/03 05:16:09;;;;;;;167.35;75.65;;;;;;;19.93;50.87;93620.16;6042755;23;20054;-94
2023/10/03 05:19:06;;;;;;;164.13;83.47;;;;;;;19.94;50.96;93613.41;6024914;23;20019;-94
2023/10/03 05:21:32;;;;;;;166.02;67.60;;;;;;;20.02;50.86;93617.06;5939877;24;20032;-92
2023/10/03 05:24:00;;;;;;;262.67;123.65;;;;;;;20.10;50.68;93615.22;5945309;23;20070;-94
2023/10/03 05:26:29;;;;;;;199.52;89.45;;;;;;;20.10;50.66;93607.00;6025756;23;20449;-92
2023/10/03 05:28:57;;;;;;;173.25;85.10;;;;;;;20.18;50.64;93613.38;5985823;23;20022;-92
2023/10/03 05:31:23;;;;;;;177.02;82.22;;;;;;;20.20;50.54;93622.56;5990991;23;20458;-92
2023/10/03 05:33:49;;;;;;;175.20;88.00;;;;;;;20.20;50.92;93622.56;6041088;23;20073;-92
2023/10/03 05:36:16;;;;;;;177.32;81.53;;;;;;;20.14;50.76;93627.38;6016183;23;20042;-91
2023/10/03 05:38:42;;;;;;;151.38;71.53;;;;;;;20.17;50.68;93622.84;5965602;23;20039;-92
2023/10/03 05:41:21;;;;;;;131.82;64.70;;;;;;;20.21;50.75;93620.56;6033048;23;20349;-92
2023/10/03 05:43:49;;;;;;;118.95;58.75;;;;;;;20.33;50.55;93626.69;6014624;23;20051;-91
2023/10/03 05:46:15;;;;;;;134.10;55.13;;;;;;;20.34;50.51;93611.69;5974247;23;20028;-92
2023/10/03 05:48:40;;;;;;;116.90;50.42;;;;;;;20.39;50.57;93624.63;5927650;24;20031;-92
2023/10/03 05:51:05;;;;;;;110.50;47.00;;;;;;;20.44;50.35;93630.03;5953135;23;20023;-92
2023/10/03 05:53:32;;;;;;;100.25;46.42;;;;;;;20.43;50.54;93625.81;5982616;23;20449;-92
2023/10/03 05:55:58;;;;;;;141.65;63.40;;;;;;;20.42;50.63;93629.81;5953973;23;20024;-90
2023/10/03 05:58:24;;;;;;;51.88;20.75;;;;;;;20.42;50.53;93620.84;6041448;23;20059;-91
2023/10/03 06:00:51;;;;;;;59.08;19.65;;;;;;;20.19;51.31;93634.06;6036318;23;20026;-93
2023/10/03 06:03:16;;;;;;;47.45;15.40;;;;;;;20.24;51.22;93630.53;5990427;23;20046;-89
2023/10/03 06:05:45;;;;;;;73.10;20.70;;;;;;;20.15;51.23;93628.13;5992987;23;20063;-91
2023/10/03 06:08:12;;;;;;;79.05;20.38;;;;;;;20.23;51.62;93631.03;5967902;23;20031;-91
2023/10/03 06:10:39;;;;;;;60.88;19.63;;;;;;;20.19;51.28;93632.06;5959559;23;20019;-91
2023/10/03 06:13:11;;;;;;;52.65;18.85;;;;;;;20.31;51.29;93635.44;5953900;23;20067;-90
2023/10/03 06:15:41;;;;;;;59.40;18.60;;;;;;;20.36;51.21;93629.13;5970494;23;20019;-91
2023/10/03 06:18:08;;;;;;;50.42;16.83;;;;;;;20.41;51.12;93624.84;5989449;23;20035;-90
2023/10/03 06:20:35;;;;;;;44.90;17.38;;;;;;;20.47;51.14;93626.28;6042179;23;20027;-91
2023/10/03 06:23:06;;;;;;;34.13;17.65;;;;;;;20.52;51.02;93635.69;6038543;23;20019;-91
2023/10/03 06:25:32;;;;;;;34.47;15.70;;;;;;;20.44;51.30;93627.31;6015247;23;20101;-89
2023/10/03 06:27:58;;;;;;;29.77;13.75;;;;;;;20.52;51.45;93628.22;6015988;23;20015;-94
2023/10/03 06:30:24;;;;;;;30.63;14.50;;;;;;;20.51;51.21;93631.47;6013863;23;20019;-92
2023/10/03 06:32:49;;;;;;;29.08;13.80;;;;;;;20.44;51.49;93630.03;6045749;23;20331;-90
2023/10/03 06:35:15;;;;;;;23.83;12.73;;;;;;;20.50;51.50;93627.97;6047453;23;20081;-94
2023/10/03 06:37:41;;;;;;;37.60;15.98;;;;;;;20.62;51.12;93627.81;6073318;23;20084;-91
2023/10/03 06:40:08;;;;;;;39.10;17.05;;;;;;;20.60;51.32;93635.84;6072839;23;20056;-92
2023/10/03 06:42:38;;;;;;;53.20;18.88;;;;;;;20.63;51.31;93641.03;6076998;23;20013;-88
2023/10/03 06:45:04;;;;;;;63.60;30.35;;;;;;;20.64;51.62;93637.03;6074811;23;20081;-92
2023/10/03 06:47:33;;;;;;;71.97;30.95;;;;;;;20.67;51.61;93632.50;6071861;23;20018;-91
2023/10/03 06:50:01;;;;;;;82.22;35.92;;;;;;;20.71;51.50;93641.94;6075119;23;20040;-90
2023/10/03 06:52:28;;;;;;;72.00;35.65;;;;;;;20.77;51.74;93639.84;6098372;23;20073;-93
2023/10/03 06:54:56;;;;;;;72.57;34.33;;;;;;;20.76;51.91;93646.63;6019656;23;20423;-92
2023/10/03 06:57:21;;;;;;;71.90;35.90;;;;;;;20.77;51.98;93641.88;6068483;23;20022;-92
2023/10/03 06:59:56;;;;;;;62.00;29.65;;;;;;;20.77;52.65;93648.09;6071426;23;20018;-92
2023/10/03 07:02:50;;;;;;;68.05;29.27;;;;;;;20.86;52.77;93646.97;6040680;23;20030;-93
2023/10/03 07:05:44;;;;;;;62.00;24.13;;;;;;;20.79;53.20;93648.28;6097596;23;20021;-94
2023/10/03 07:08:11;;;;;;;57.00;26.08;;;;;;;20.82;53.44;93649.25;6118708;23;20439;-89
2023/10/03 07:10:44;;;;;;;85.45;35.45;;;;;;;20.82;53.58;93641.03;6061901;23;20028;-93
2023/10/03 07:13:12;;;;;;;80.70;38.65;;;;;;;20.84;53.62;93644.00;6072386;23;20605;-92
2023/10/03 07:15:39;;;;;;;100.45;36.00;;;;;;;20.80;53.94;93641.53;6097483;23;20014;-89
2023/10/03 07:18:05;;;;;;;60.08;33.83;;;;;;;20.67;54.30;93641.47;6071525;23;20014;-93
2023/10/03 07:20:30;;;;;;;70.45;39.97;;;;;;;20.73;54.42;93636.66;6073029;23;20028;-93
2023/10/03 07:22:56;;;;;;;88.82;42.88;;;;;;;20.78;54.39;93651.59;6075517;23;20038;-90
2023/10/03 07:25:23;;;;;;;90.20;46.70;;;;;;;20.84;54.21;93639.25;6097947;23;20014;-90
2023/10/03 07:27:49;;;;;;;78.72;43.85;;;;;;;20.74;54.72;93645.66;6088800;23;20033;-91
2023/10/03 07:30:15;;;;;;;72.75;39.20;;;;;;;20.77;54.45;93639.84;6069778;23;20032;-92
2023/10/03 07:32:41;;;;;;;82.85;40.47;;;;;;;20.85;54.33;93642.72;6095887;23;20022;-92
2023/10/03 07:35:13;;;;;;;83.07;36.97;;;;;;;20.90;54.50;93643.91;6043154;23;20049;-91
2023/10/03 07:37:49;;;;;;;59.17;30.10;;;;;;;20.84;54.36;93647.47;6081317;23;20045;-92
2023/10/03 07:40:15;;;;;;;49.42;23.73;;;;;;;20.77;54.62;93644.63;6130579;23;20038;-93
2023/10/03 07:42:46;;;;;;;44.15;20.50;;;;;;;20.88;54.18;93649.94;6079647;23;20018;-94
2023/10/03 07:48:17;;;;;;;;;;;;;;;20.92;54.04;93644.16;6026840;23;20561;-95
2023/10/03 07:50:53;;;;;;;;;;;;;;;;;;;;;
2023/10/03 07:56:37;;;;;;;33.15;16.10;;;;;;;20.98;53.93;93644.81;5918126;24;20207;-93
2023/10/03 07:59:36;;;;;;;24.25;10.90;;;;;;;20.86;53.75;93649.72;5965917;23;20030;-92
2023/10/03 08:03:38;;;;;;;;;;;;;;;;;;;;;
2023/10/03 08:06:03;;;;;;;17.92;9.00;;;;;;;20.77;53.46;93648.09;5844940;24;20081;-90
2023/10/03 08:08:29;;;;;;;20.77;8.50;;;;;;;20.74;53.88;93657.38;5850343;24;20022;-91
2023/10/03 08:10:56;;;;;;;25.73;10.75;;;;;;;20.72;53.42;93661.91;5837022;24;20022;-91
2023/10/03 08:13:30;;;;;;;21.48;11.02;;;;;;;20.70;53.59;93662.44;5870130;24;20196;-92
2023/10/03 08:15:56;;;;;;;20.73;11.27;;;;;;;20.65;53.60;93659.75;5848734;24;20022;-90
2023/10/03 08:18:22;;;;;;;23.08;9.68;;;;;;;20.63;54.08;93665.00;5894973;24;20069;-92
2023/10/03 08:21:23;;;;;;;20.73;9.90;;;;;;;20.64;54.05;93672.00;5862122;24;20094;-90
2023/10/03 08:23:51;;;;;;;22.33;9.18;;;;;;;20.64;54.31;93666.50;5822812;24;20182;-93
2023/10/03 08:26:17;;;;;;;23.60;9.85;;;;;;;20.67;53.99;93673.72;5844690;24;20106;-89
2023/10/03 08:28:42;;;;;;;19.58;8.23;;;;;;;20.65;53.96;93673.47;5820868;24;20023;-88
2023/10/03 08:31:10;;;;;;;20.75;8.23;;;;;;;20.71;54.07;93669.41;5864403;24;20409;-90
2023/10/03 08:33:38;;;;;;;22.05;12.15;;;;;;;20.70;53.42;93665.19;5866869;24;20046;-89
2023/10/03 08:36:23;;;;;;;24.73;11.43;;;;;;;20.69;53.80;93668.44;5839592;24;20079;-89
2023/10/03 08:38:50;;;;;;;19.88;9.50;;;;;;;20.65;53.53;93670.72;5761382;24;20023;-91
2023/10/03 08:41:23;;;;;;;29.67;14.93;;;;;;;20.71;53.85;93663.16;5793532;24;20026;-91
2023/10/03 08:43:53;;;;;;;31.27;15.13;;;;;;;20.72;53.93;93665.41;5903558;24;20104;-90
2023/10/03 08:46:19;;;;;;;33.63;14.25;;;;;;;20.79;53.39;93664.03;5875893;24;20026;-90
2023/10/03 08:48:45;;;;;;;30.77;13.35;;;;;;;20.82;53.32;93672.00;5872860;24;20025;-90
2023/10/03 08:51:13;;;;;;;24.02;12.27;;;;;;;20.85;53.03;93670.22;5871545;24;20074;-89
2023/10/03 08:53:42;;;;;;;25.13;11.18;;;;;;;20.91;52.94;93670.13;5897275;24;20025;-90
2023/10/03 08:56:08;;;;;;;32.90;11.63;;;;;;;20.97;52.39;93670.81;5872432;24;20030;-92
2023/10/03 08:58:34;;;;;;;84.53;21.08;;;;;;;21.01;52.03;93669.22;5958942;23;20450;-91
2023/10/03 09:01:01;;;;;;;85.88;25.10;;;;;;;21.02;51.66;93672.72;6052336;23;20014;-89
2023/10/03 09:03:42;;;;;;;81.10;23.20;;;;;;;21.09;50.95;93666.63;6054632;23;20022;-89
2023/10/03 09:06:08;;;;;;;63.33;18.85;;;;;;;21.06;51.09;93667.66;6061040;23;20029;-91
2023/10/03 09:08:34;;;;;;;55.83;22.00;;;;;;;21.07;50.61;93675.41;6054412;23;20160;-90
2023/10/03 09:11:00;;;;;;;78.35;35.38;;;;;;;21.07;51.29;93669.16;6049268;23;20014;-91
2023/10/03 09:13:28;;;;;;;61.45;27.15;;;;;;;21.08;50.88;93668.63;6071699;23;20455;-91
2023/10/03 09:16:00;;;;;;;42.45;20.45;;;;;;;21.09;51.58;93675.63;6050714;23;20022;-88
2023/10/03 09:18:40;;;;;;;42.85;23.35;;;;;;;21.07;51.64;93674.66;6049718;23;20018;-91
2023/10/03 09:21:06;;;;;;;64.10;35.05;;;;;;;21.10;51.80;93679.09;6051949;23;20493;-89
2023/10/03 09:23:39;;;;;;;62.38;27.50;;;;;;;21.02;52.31;93669.97;6047285;23;20019;-89
2023/10/03 09:26:08;;;;;;;44.53;24.67;;;;;;;21.08;52.36;93668.63;6047835;23;20042;-88
2023/10/03 09:28:37;;;;;;;39.67;19.80;;;;;;;21.10;52.12;93665.38;6069936;23;20495;-91
2023/10/03 09:31:08;;;;;;;35.72;17.45;;;;;;;21.15;52.13;93670.78;6052445;23;20026;-92
2023/10/03 09:33:41;;;;;;;38.65;17.80;;;;;;;21.14;51.77;93669.31;6075816;23;20014;-91
2023/10/03 09:36:07;;;;;;;37.33;20.85;;;;;;;21.15;50.99;93670.78;6099924;23;20395;-90
2023/10/03 09:38:42;;;;;;;39.95;18.83;;;;;;;21.13;50.94;93670.56;6052252;23;20029;-91
2023/10/03 09:41:16;;;;;;;41.63;17.88;;;;;;;21.09;51.03;93670.13;6079168;23;20031;-90
2023/10/03 09:43:55;;;;;;;35.53;13.90;;;;;;;21.10;51.51;93663.34;6100472;23;20102;-93
2023/10/03 09:46:41;;;;;;;40.15;19.80;;;;;;;21.15;51.32;93667.28;6051804;23;20014;-89
2023/10/03 09:49:09;;;;;;;44.33;22.38;;;;;;;21.18;51.31;93660.75;6074948;23;20462;-88
2023/10/03 09:51:36;;;;;;;52.45;24.15;;;;;;;21.17;50.84;93657.25;6049589;23;20069;-90
2023/10/03 09:54:11;;;;;;;66.38;33.67;;;;;;;21.18;50.90;93658.00;6071689;23;20085;-89
2023/10/03 09:56:40;;;;;;;36.78;18.20;;;;;;;21.18;51.24;93655.25;6048026;23;20134;-91
2023/10/03 09:59:17;;;;;;;39.30;13.95;;;;;;;21.09;51.46;93658.38;6066479;23;20018;-90
2023/10/03 10:01:43;;;;;;;29.83;11.52;;;;;;;21.12;51.91;93651.84;6044318;23;20042;-88
2023/10/03 10:04:09;;;;;;;22.70;9.05;;;;;;;21.17;51.69;93651.03;6038044;23;20093;-91
2023/10/03 10:06:40;;;;;;;22.33;8.30;;;;;;;21.16;51.70;93646.78;6039148;23;20480;-91
2023/10/03 10:09:23;;;;;;;15.45;8.02;;;;;;;21.18;51.95;93653.25;6064849;23;20006;-90
2023/10/03 10:12:21;;;;;;;16.25;6.47;;;;;;;21.26;52.03;93655.41;6068268;23;20014;-89
2023/10/03 10:15:00;;;;;;;21.30;7.05;;;;;;;21.26;51.92;93647.16;6088386;23;20026;-89
2023/10/03 10:17:51;;;;;;;19.90;6.88;;;;;;;21.23;51.78;93648.19;6087957;23;20018;-89
2023/10/03 10:20:21;;;;;;;16.63;6.30;;;;;;;21.23;52.03;93648.94;6042907;23;20446;-88
2023/10/03 10:23:01;;;;;;;16.25;6.32;;;;;;;21.27;51.80;93649.38;6065794;23;20058;-88
2023/10/03 10:25:50;;;;;;;12.48;6.57;;;;;;;21.32;51.95;93650.56;6087225;23;20050;-88
2023/10/03 10:28:22;;;;;;;27.33;8.77;;;;;;;21.36;51.97;93648.25;6067195;23;20021;-88
2023/10/03 10:31:21;;;;;;;21.52;7.57;;;;;;;21.38;51.97;93649.22;6042718;23;20015;-88
2023/10/03 10:33:49;;;;;;;25.83;7.78;;;;;;;21.37;52.05;93650.47;6065027;23;20014;-88
2023/10/03 10:36:18;;;;;;;20.13;8.57;;;;;;;21.38;52.23;93634.72;6064977;23;20105;-88
2023/10/03 10:38:43;;;;;;;14.50;6.07;;;;;;;21.40;52.04;93640.44;6041585;23;20398;-88
2023/10/03 10:41:12;;;;;;;14.68;6.93;;;;;;;21.43;52.08;93636.66;6089695;23;20026;-88
2023/10/03 10:44:13;;;;;;;12.98;6.30;;;;;;;21.43;52.14;93636.66;6091056;23;20018;-89
2023/10/03 10:46:52;;;;;;;15.55;6.43;;;;;;;21.43;52.33;93634.63;6089213;23;20018;-88
2023/10/03 10:49:34;;;;;;;15.30;6.65;;;;;;;21.43;52.03;93628.41;6068188;23;20881;-87
2023/10/03 10:52:06;;;;;;;15.65;7.40;;;;;;;21.52;51.48;93625.22;6090477;23;20771;-88
2023/10/03 10:54:41;;;;;;;16.27;7.85;;;;;;;21.50;51.40;93623.00;6065670;23;20089;-89
2023/10/03 10:57:10;;;;;;;28.38;11.10;;;;;;;21.50;51.60;93617.50;6040585;23;20022;-88
2023/10/03 10:59:36;;;;;;;20.83;9.90;;;;;;;21.50;51.31;93619.50;6067035;23;20022;-89
2023/10/03 11:02:03;;;;;;;17.02;7.97;;;;;;;21.48;51.40;93617.28;6064320;23;20069;-88
2023/10/03 11:04:33;;;;;;;19.60;8.43;;;;;;;21.52;50.95;93622.47;6090107;23;20019;-89
2023/10/03 11:07:00;;;;;;;32.40;9.57;;;;;;;21.55;50.85;93615.94;6041051;23;20042;-89
2023/10/03 11:09:25;;;;;;;22.48;10.30;;;;;;;21.57;51.07;93615.41;6064951;23;20094;-89
2023/10/03 11:11:51;;;;;;;23.85;12.68;;;;;;;21.56;51.16;93606.41;6042568;23;20022;-88
2023/10/03 11:14:29;;;;;;;40.85;22.92;;;;;;;21.57;51.80;93607.16;6043639;23;20055;-87
2023/10/03 11:16:55;;;;;;;46.30;24.88;;;;;;;21.63;51.72;93613.31;6044602;23;20018;-89
2023/10/03 11:19:21;;;;;;;57.17;29.83;;;;;;;21.71;51.58;93605.88;6042832;23;20680;-89
2023/10/03 11:21:47;;;;;;;47.58;24.55;;;;;;;21.68;51.37;93610.44;6031924;23;20018;-88
2023/10/03 11:24:14;;;;;;;46.78;23.25;;;;;;;21.68;51.85;93606.94;6066120;23;20090;-87
2023/10/03 11:26:42;;;;;;;61.17;28.17;;;;;;;21.73;51.44;93606.09;6051256;23;20015;-89
2023/10/03 11:29:08;;;;;;;46.20;21.92;;;;;;;21.71;51.48;93606.63;6046318;23;20394;-88
2023/10/03 11:31:39;;;;;;;50.33;23.80;;;;;;;21.77;50.74;93598.28;6069396;23;20037;-89
2023/10/03 11:34:05;;;;;;;54.65;27.63;;;;;;;21.79;50.47;93604.00;6071133;23;20033;-89
2023/10/03 11:36:44;;;;;;;76.60;37.67;;;;;;;21.74;49.80;93605.56;6071118;23;20006;-91
2023/10/03 11:39:13;;;;;;;64.78;30.50;;;;;;;21.77;49.60;93598.28;6046975;23;20018;-89
2023/10/03 11:41:38;;;;;;;69.10;31.05;;;;;;;21.72;49.77;93599.84;6072796;23;20777;-91
2023/10/03 11:44:06;;;;;;;61.28;26.98;;;;;;;21.70;49.34;93594.13;6073919;23;20066;-89
2023/10/03 11:46:39;;;;;;;76.95;34.30;;;;;;;21.72;49.55;93602.59;6049694;23;20072;-91
2023/10/03 11:49:10;;;;;;;104.55;39.92;;;;;;;21.72;49.26;93597.09;6054584;23;20034;-91
2023/10/03 11:51:38;;;;;;;73.43;31.92;;;;;;;21.75;49.81;93596.06;6060138;23;20688;-92
2023/10/03 11:54:09;;;;;;;71.30;26.10;;;;;;;21.73;49.61;93600.59;6079936;23;20011;-91
2023/10/03 11:56:44;;;;;;;48.38;22.80;;;;;;;21.72;49.46;93596.38;6058045;23;20025;-89